Sandy Plains, Georgia
Current Conditions -  °F | °C
As of 6:58 PM on Sunday 21 Dec 2014 (Local Time) from KMGE Reporting Station
Haze Haze  
Wind Chill: 44°   Ceiling: 900
Heat Index: 48°   Visibility: 4mi
Dew Point: 44°   Wind: 8mph
Humidity: 87%   Direction: 90°E
Pressure: 30.1"   Gusts: NA
Location:  34.0525°N, 84.3874°W
Report Text: KMGE 212358Z 09007KT 4SM BR BKN009 OVC015 09/07 A3010 RMK AO2A SLP197 T00890069 10092 20088 55004 $
Loading
Personal Weather Stations






























Interactive Weather Map New forecast layout! Learn more

10-Day Weather Forecast

Advertisements
Track Severe Weather on mobile